Fleetwood, Pennsylvania
Current Conditions -  °F | °C
As of 3:54 AM on Friday 31 Oct 2014 (Local Time) from KRDG Reporting Station
Overcast Overcast  
Wind Chill: 37°   Ceiling: 5000
Heat Index: 37°   Visibility: 10mi
Dew Point: 33°   Wind: 3mph
Humidity: 86%   Direction: 10°N
Pressure: 30.02"   Gusts: NA
Location:  40.45°N, 75.82°W
Report Text: KRDG 310754Z 01003KT 10SM OVC050 03/01 A3002 RMK AO2 SLP172 T00280006
Loading
Personal Weather Stations






























Interactive Weather Map
Tropical Storm Tracking
New forecast layout! Learn more

10-Day Weather Forecast

Advertisements
Track Severe Weather on mobile